Weather observations for the past three days for
Mountain View, Moffett Field
Imperial (Metric)
Date Time (pdt) Wind (mph) Vis. (mi.) Weather Sky Cond. Temperature (ºF) Relative Humidity Wind Chill (°F) Heat Index (°F) Pressure Precipitation (in)
Air Dwpt 6 hour altimeter (in) sea level (mb) 1 hr 3 hr 6 hr
Max. Min.
31 12:50 N 8 G 15 10.00 Overcast OVC030 68 53.6 60% 29.96 0.0
31 12:35 N 9 10.00 Mostly Cloudy BKN030 68 53.6 60% 29.97 0.0
31 12:15 N 8 10.00 Mostly Cloudy BKN029 BKN034 68 51.8 56% 29.97 0.0
31 11:55 Vrbl 5 10.00 Mostly Cloudy BKN027 68 51.8 56% 29.97 0.0
31 11:35 Calm 10.00 Overcast OVC025 64.4 51.8 64% 29.98 0.0
31 11:15 SW 7 10.00 Overcast OVC025 64.4 51.8 64% 29.98 0.0
31 10:55 W 7 G 14 9.00 Overcast OVC025 64.4 51.8 64% 29.98 0.0
31 10:35 SW 12 10.00 Overcast OVC026 62.6 51.8 68% 29.98 0.0
31 10:15 W 10 10.00 Overcast OVC026 62.6 51.8 68% 29.98 0.0
31 09:55 W 9 10.00 Overcast OVC024 62.6 51.8 68% 29.97 0.0
31 09:35 SW 6 10.00 Overcast OVC023 60.8 51.8 72% 29.97 0.0
31 09:15 SW 6 10.00 Overcast OVC022 60.8 51.8 72% 29.96 0.0
31 08:55 Vrbl 6 10.00 Overcast OVC021 60.8 51.8 72% 29.97 0.0
31 08:35 Vrbl 5 10.00 Overcast OVC022 60.8 51.8 72% 29.96 0.0
31 08:15 Calm 10.00 Overcast OVC021 60.8 53.6 77% 29.97 0.0
31 07:55 Calm 10.00 Overcast OVC021 60.8 51.8 72% 29.96 0.0
31 07:30 Calm 9.00 Overcast OVC021 59 51.8 77% 29.95 0.0
31 07:15 Calm 9.00 Mostly Cloudy BKN022 BKN085 59 51.8 77% 29.94 0.0
31 06:55 SW 3 10.00 Overcast FEW019 BKN024 OVC085 59 51.8 77% 29.94 0.0
31 06:35 SW 5 10.00 Overcast FEW014 FEW020 OVC085 57.2 51.8 82% 29.93 0.0
31 06:15 W 3 9.00 Overcast SCT014 BKN023 OVC085 57.2 51.8 82% 29.93 0.0
31 05:55 Calm 9.00 Overcast SCT016 BKN023 OVC090 59 51.8 77% 29.93 0.0
31 05:35 Calm 9.00 Overcast OVC015 59 53.6 82% 29.92 0.0
31 05:15 E 5 9.00 Overcast OVC014 59 53.6 82% 29.92 0.0
31 04:55 SE 6 9.00 Overcast OVC014 59 53.6 82% 29.91 0.0
31 04:35 Calm 8.00 Overcast OVC013 59 55.4 88% 29.91 0.0
31 04:15 Calm 8.00 Overcast OVC013 59 55.4 88% 29.91 0.0
31 03:50 Calm 8.00 Overcast OVC013 59 55.4 88% 29.91 0.0
31 03:35 E 7 8.00 Overcast OVC013 59 55.4 88% 29.9 0.0
31 03:15 E 5 8.00 Overcast OVC013 59 55.4 88% 29.9 0.0
31 02:55 NE 3 8.00 Overcast OVC013 59 55.4 88% 29.9 0.0
31 02:35 NE 5 8.00 Overcast OVC013 59 55.4 88% 29.9 0.0
31 02:15 NE 3 8.00 Overcast BKN015 OVC100 59 53.6 82% 29.9 0.0
31 01:55 Calm 7.00 Mostly Cloudy BKN013 BKN018 BKN110 59 55.4 88% 29.91 0.0
31 01:35 NE 3 7.00 Partly Cloudy FEW013 FEW019 SCT110 59 55.4 88% 29.91 0.0
31 01:15 N 5 7.00 Partly Cloudy SCT017 59 55.4 88% 29.91 0.0
31 00:55 N 5 8.00 Mostly Cloudy BKN017 59 55.4 88% 29.91 0.0
31 00:35 N 5 7.00 Partly Cloudy SCT017 59 55.4 88% 29.91 0.0
31 00:15 N 5 7.00 A Few Clouds FEW016 59 55.4 88% 29.91 0.0
30 23:55 N 6 7.00 Partly Cloudy SCT016 59 55.4 88% 29.91 0.0
30 23:35 N 3 8.00 A Few Clouds FEW016 59 55.4 88% 29.91 0.0
30 23:15 NE 3 8.00 Fair CLR 59 55.4 88% 29.92 0.0
30 22:55 Calm 8.00 Fair CLR 59 55.4 88% 29.92 0.0
30 22:35 N 6 8.00 Fair CLR 59 55.4 88% 29.92 0.0
30 22:10 N 7 9.00 A Few Clouds FEW031 60.8 55.4 83% 29.92 0.0
30 21:55 N 8 9.00 A Few Clouds FEW030 60.8 55.4 83% 29.92 0.0
30 21:35 N 8 10.00 Partly Cloudy SCT030 60.8 55.4 83% 29.92 0.0
30 21:15 N 8 9.00 Partly Cloudy SCT030 62.6 55.4 77% 29.91 0.0
30 20:55 N 10 10.00 Partly Cloudy SCT029 SCT033 62.6 55.4 77% 29.9 0.0
30 20:35 N 13 10.00 A Few Clouds FEW030 64.4 53.6 68% 29.89 0.0
30 20:15 N 13 10.00 Fair CLR 64.4 55.4 73% 29.89 0.0
30 19:55 N 12 9.00 Fair CLR 64.4 55.4 73% 29.88 0.0
30 19:35 N 13 7.00 Fair CLR 66.2 59 78% 29.88 0.0
30 19:15 N 13 8.00 Fair CLR 66.2 57.2 73% 29.88 0.0
30 18:55 N 15 8.00 Fair CLR 66.2 57.2 73% 29.87 0.0
30 18:30 N 15 8.00 Fair CLR 66.2 57.2 73% 29.87 0.0
30 18:15 N 16 9.00 Fair CLR 68 57.2 69% 29.87 0.0
30 17:55 N 13 G 18 9.00 Fair CLR 68 55.4 64% 29.87 0.0
30 17:35 N 14 9.00 Fair CLR 68 57.2 69% 29.88 0.0
30 17:15 NW 10 9.00 Fair CLR 69.8 57.2 64% 29.88 0.0
30 16:55 N 13 9.00 Fair CLR 69.8 57.2 64% 29.88 0.0
30 16:35 NW 9 9.00 Fair CLR 69.8 55.4 60% 29.88 0.0
30 16:15 NW 10 9.00 Fair CLR 69.8 55.4 60% 29.88 0.0
30 15:55 NW 10 9.00 Fair CLR 71.6 55.4 57% 29.89 0.0
30 15:35 N 13 9.00 Fair CLR 69.8 57.2 64% 29.89 0.0
30 15:15 N 13 9.00 Fair CLR 69.8 55.4 60% 29.9 0.0
30 14:55 N 13 10.00 Fair CLR 69.8 55.4 60% 29.91 0.0
30 14:35 N 12 9.00 Fair CLR 69.8 57.2 64% 29.92 0.0
30 14:15 N 12 9.00 Fair CLR 69.8 55.4 60% 29.93 0.0
30 13:55 N 13 9.00 Fair CLR 69.8 55.4 60% 29.93 0.0
30 13:35 N 10 G 17 9.00 Fair CLR 69.8 55.4 60% 29.94 0.0
30 13:15 N 10 9.00 Fair CLR 69.8 55.4 60% 29.94 0.0
30 12:55 N 10 G 18 9.00 Fair CLR 68 55.4 64% 29.94 0.0
30 12:35 N 9 G 16 9.00 Fair CLR 68 53.6 60% 29.95 0.0
30 12:15 N 13 9.00 Fair CLR 68 55.4 64% 29.95 0.0
30 11:55 N 13 9.00 Fair CLR 69.8 55.4 60% 29.95 0.0
30 11:35 N 5 9.00 Fair CLR 68 53.6 60% 29.96 0.0
30 11:15 Calm 9.00 Fair CLR 68 53.6 60% 29.96 0.0
30 10:55 E 6 10.00 Fair CLR 68 53.6 60% 29.96 0.0
30 10:35 NE 5 9.00 Fair CLR 66.2 53.6 64% 29.96 0.0
30 10:15 NE 6 10.00 Fair CLR 64.4 51.8 64% 29.96 0.0
30 09:55 NE 6 9.00 Fair CLR 66.2 51.8 60% 29.96 0.0
30 09:35 NE 3 9.00 Fair CLR 64.4 51.8 64% 29.96 0.0
30 09:10 Calm 9.00 Fair CLR 62.6 51.8 68% 29.96 0.0
30 08:55 Vrbl 5 9.00 Fair CLR 62.6 51.8 68% 29.97 0.0
30 08:35 NE 5 9.00 Fair CLR 62.6 53.6 73% 29.97 0.0
30 08:15 N 5 9.00 Fair CLR 60.8 51.8 72% 29.97 0.0
30 07:55 Calm 9.00 Fair CLR 60.8 51.8 72% 29.96 0.0
30 07:35 Calm 10.00 Fair CLR 59 51.8 77% 29.96 0.0
30 07:10 Calm 9.00 Fair CLR 55.4 50 82% 29.96 0.0
30 06:55 Calm 10.00 Fair CLR 55.4 48.2 77% 29.95 0.0
30 06:35 Calm 10.00 Fair CLR 55.4 50 82% 29.95 0.0
30 06:15 Calm 10.00 Fair CLR 57.2 50 77% 29.95 0.0
30 05:55 Calm 10.00 Fair CLR 57.2 48.2 72% 29.95 0.0
30 05:35 Calm 10.00 Fair CLR 57.2 48.2 72% 29.94 0.0
30 05:15 S 3 10.00 Fair CLR 57.2 48.2 72% 29.94 0.0
30 04:55 Calm 10.00 Fair CLR 57.2 50 77% 29.94 0.0
30 04:35 SE 3 9.00 Fair CLR 57.2 50 77% 29.94 0.0
30 04:15 Calm 10.00 Fair CLR 57.2 50 77% 29.94 0.0
30 03:55 Calm 10.00 Fair CLR 57.2 50 77% 29.94 0.0
30 03:35 Calm 10.00 Fair CLR 59 51.8 77% 29.94 0.0
30 03:15 Calm 10.00 Fair CLR 59 51.8 77% 29.94 0.0
30 02:55 Calm 10.00 Fair CLR 59 51.8 77% 29.94 0.0
30 02:35 Calm 9.00 Fair CLR 59 51.8 77% 29.94 0.0
30 02:15 Calm 10.00 Fair CLR 60.8 53.6 77% 29.94 0.0
30 01:50 S 3 10.00 Fair CLR 60.8 53.6 77% 29.95 0.0
30 01:35 Calm 9.00 Fair CLR 60.8 53.6 77% 29.95 0.0
30 01:15 Calm 9.00 Fair CLR 60.8 53.6 77% 29.95 0.0
30 00:55 NE 7 10.00 Fair CLR 60.8 53.6 77% 29.95 0.0
30 00:35 N 3 9.00 NULL NULL 60.8 53.6 77% 29.95 0.0
30 00:10 NW 3 9.00 Fair CLR 60.8 53.6 77% 29.95 0.0
29 23:55 N 5 9.00 Fair CLR 60.8 53.6 77% 29.95 0.0
29 23:35 NW 3 9.00 Fair CLR 60.8 51.8 72% 29.95 0.0
29 23:15 Calm 9.00 Fair CLR 60.8 51.8 72% 29.95 0.0
29 22:55 Calm 10.00 Fair CLR 60.8 50 68% 29.96 0.0
29 22:35 Calm 10.00 Fair CLR 62.6 50 64% 29.95 0.0
29 22:10 Calm 10.00 Fair CLR 64.4 50 60% 29.96 0.0
29 21:55 Calm 10.00 Fair CLR 64.4 50 60% 29.96 0.0
29 21:35 N 9 10.00 Fair CLR 64.4 50 60% 29.96 0.0
29 21:15 N 10 10.00 Fair CLR 64.4 50 60% 29.96 0.0
29 20:55 Calm 10.00 Fair CLR 66.2 48.2 52% 29.95 0.0
29 20:35 NW 8 10.00 Fair CLR 66.2 50 56% 29.94 0.0
29 20:10 NW 10 G 16 10.00 NULL NULL 66.2 50 56% 29.93 0.0
29 19:55 NW 9 G 15 10.00 Fair CLR 68 50 53% 29.93 0.0
29 19:35 N 8 10.00 Fair CLR 69.8 50 50% 29.93 0.0
29 19:15 NW 8 10.00 Fair CLR 71.6 48.2 44% 29.92 0.0
29 18:55 N 14 10.00 Fair CLR 71.6 53.6 53% 29.93 0.0
29 18:35 N 16 10.00 Fair CLR 71.6 51.8 50% 29.93 0.0
29 18:15 N 18 10.00 NULL NULL 73.4 51.8 47% 29.93 0.0
29 17:55 N 15 10.00 Fair CLR 73.4 51.8 47% 29.93 0.0
29 17:35 N 18 10.00 Fair CLR 73.4 53.6 50% 29.93 0.0
29 17:15 N 18 10.00 Fair CLR 73.4 55.4 53% 29.92 0.0
29 16:55 N 20 9.00 Fair CLR 73.4 57.2 57% 29.92 0.0
29 16:30 N 18 10.00 Fair CLR 75.2 57.2 54% 78 29.93 0.0
29 16:15 N 20 10.00 Fair CLR 75.2 55.4 50% 78 29.93 0.0
29 15:55 N 21 10.00 Fair and Breezy CLR 75.2 57.2 54% 78 29.93 0.0
29 15:35 N 18 10.00 Fair CLR 71.6 57.2 61% 29.94 0.0
29 15:15 NW 16 10.00 Fair CLR 71.6 55.4 57% 29.95 0.0
29 14:55 N 18 9.00 Fair CLR 73.4 57.2 57% 29.96 0.0
29 14:35 N 16 9.00 Fair CLR 73.4 57.2 57% 29.96 0.0
29 14:15 N 14 10.00 Fair CLR 73.4 55.4 53% 29.97 0.0
29 13:55 N 15 10.00 Fair CLR 73.4 55.4 53% 29.97 0.0
29 13:35 N 12 10.00 Fair CLR 71.6 55.4 57% 29.97 0.0
29 13:15 N 12 10.00 Fair CLR 71.6 57.2 61% 29.97 0.0
29 12:55 NW 10 9.00 Fair CLR 71.6 57.2 61% 29.98 0.0
29 12:35 N 10 10.00 Fair CLR 71.6 57.2 61% 29.99 0.0
29 12:15 N 9 10.00 Fair CLR 71.6 57.2 61% 30 0.0
29 11:55 Vrbl 6 10.00 Fair CLR 71.6 57.2 61% 30 0.0
29 11:35 Calm 10.00 Fair CLR 69.8 57.2 64% 30.01 0.0
29 11:15 N 3 10.00 Fair CLR 68 57.2 69% 30.01 0.0
29 10:55 Calm 10.00 Fair CLR 66.2 57.2 73% 30.01 0.0
29 10:35 Vrbl 5 10.00 Fair CLR 66.2 55.4 68% 30.01 0.0
29 10:15 Vrbl 5 10.00 Fair CLR 66.2 57.2 73% 30.01 0.0
29 09:55 N 6 9.00 Fair CLR 66.2 57.2 73% 30.01 0.0
29 09:35 Calm 9.00 Fair CLR 64.4 57.2 78% 30.01 0.0
29 09:10 Calm 9.00 A Few Clouds FEW013 64.4 57.2 78% 30.01 0.0
29 08:55 Vrbl 5 10.00 Partly Cloudy SCT013 62.6 57.2 83% 30.01 0.0
29 08:35 E 6 9.00 Partly Cloudy SCT010 62.6 57.2 83% 30 0.0
29 08:15 Vrbl 5 9.00 Mostly Cloudy BKN009 60.8 57.2 88% 30 0.0
29 07:55 Vrbl 3 9.00 Overcast OVC008 59 55.4 88% 30 0.0
29 07:30 Calm 9.00 Overcast OVC008 59 55.4 88% 30 0.0
29 07:15 NE 3 9.00 Overcast OVC008 59 55.4 88% 29.99 0.0
29 06:55 Calm 9.00 Overcast OVC008 59 55.4 88% 29.99 0.0
29 06:35 Calm 10.00 Overcast OVC008 59 55.4 88% 29.98 0.0
29 06:15 Calm 9.00 Overcast OVC008 59 55.4 88% 29.98 0.0
29 05:50 Calm 9.00 Overcast OVC009 59 55.4 88% 29.98 0.0
29 05:35 NE 3 9.00 Overcast OVC009 59 55.4 88% 29.98 0.0
29 05:15 NE 5 9.00 Overcast OVC009 59 57.2 94% 29.98 0.0
29 04:55 Calm 9.00 Overcast OVC009 60.8 55.4 83% 29.98 0.0
29 04:35 Calm 10.00 Overcast OVC009 60.8 55.4 83% 29.98 0.0
29 04:15 Calm 10.00 Overcast OVC009 59 55.4 88% 29.98 0.0
29 03:50 Calm 10.00 Overcast OVC010 59 55.4 88% 29.98 0.0
29 03:35 Calm 10.00 Partly Cloudy SCT011 59 55.4 88% 29.98 0.0
29 03:15 Calm 10.00 Fair CLR 59 55.4 88% 29.98 0.0
29 02:55 Calm 10.00 Fair CLR 59 55.4 88% 29.97 0.0
29 02:35 Calm 9.00 Fair CLR 60.8 57.2 88% 29.97 0.0
29 02:15 Calm 9.00 Fair CLR 60.8 57.2 88% 29.97 0.0
29 01:50 Calm 9.00 Fair CLR 60.8 57.2 88% 29.97 0.0
29 01:35 N 6 9.00 Fair CLR 60.8 57.2 88% 29.97 0.0
29 01:15 Calm 10.00 Fair CLR 60.8 57.2 88% 29.98 0.0
29 00:55 Calm 9.00 Fair CLR 60.8 57.2 88% 29.98 0.0
29 00:35 NW 5 9.00 Fair CLR 62.6 57.2 83% 29.98 0.0
29 00:15 N 7 9.00 Fair CLR 62.6 57.2 83% 29.97 0.0
28 23:55 N 8 10.00 Fair CLR 62.6 57.2 83% 29.97 0.0
28 23:35 N 6 9.00 Fair CLR 62.6 57.2 83% 29.97 0.0
28 23:15 N 6 9.00 Fair CLR 62.6 57.2 83% 29.97 0.0
28 22:55 N 6 10.00 Fair CLR 62.6 59 88% 29.96 0.0
28 22:35 N 5 9.00 Fair CLR 62.6 57.2 83% 29.97 0.0
28 22:15 N 5 10.00 Fair CLR 62.6 59 88% 29.97 0.0
28 21:55 N 8 10.00 Fair CLR 64.4 59 83% 29.97 0.0
28 21:35 N 7 10.00 Fair CLR 64.4 59 83% 29.97 0.0
28 21:15 N 8 10.00 Fair CLR 64.4 59 83% 29.97 0.0
28 20:55 N 9 10.00 Fair CLR 64.4 59 83% 29.97 0.0
28 20:35 N 10 10.00 Fair CLR 64.4 57.2 78% 29.97 0.0
28 20:15 N 7 10.00 Fair CLR 64.4 59 83% 29.96 0.0
28 19:55 NW 7 10.00 Fair CLR 64.4 57.2 78% 29.96 0.0
28 19:35 NW 7 10.00 Fair CLR 64.4 57.2 78% 29.96 0.0
28 19:15 NW 7 10.00 Fair CLR 66.2 57.2 73% 29.97 0.0
28 18:55 N 10 10.00 Fair CLR 66.2 57.2 73% 29.97 0.0
28 18:35 N 10 10.00 Fair CLR 66.2 59 78% 29.98 0.0
28 18:15 N 10 10.00 Fair CLR 68 57.2 69% 29.97 0.0
28 17:55 N 12 G 17 10.00 Fair CLR 68 59 73% 29.97 0.0
28 17:35 N 13 9.00 Fair CLR 68 59 73% 29.97 0.0
28 17:15 N 15 10.00 Fair CLR 66.2 57.2 73% 29.98 0.0
28 16:55 NW 15 10.00 Fair CLR 68 57.2 69% 29.98 0.0
28 16:35 N 13 10.00 A Few Clouds FEW120 68 57.2 69% 29.97 0.0
28 16:15 N 12 10.00 Fair CLR 68 57.2 69% 29.98 0.0
28 15:55 N 9 10.00 Fair CLR 68 57.2 69% 29.99 0.0
28 15:35 N 9 10.00 Fair CLR 68 57.2 69% 29.99 0.0
28 15:15 N 12 10.00 A Few Clouds FEW120 68 57.2 69% 30 0.0
28 14:50 N 12 10.00 Partly Cloudy SCT120 69.8 59 69% 30.01 0.0
28 14:35 N 13 10.00 Partly Cloudy SCT120 68 59 73% 30.02 0.0
28 14:15 N 13 10.00 A Few Clouds FEW120 68 59 73% 30.02 0.0
28 13:55 N 13 10.00 Partly Cloudy SCT120 68 59 73% 30.02 0.0
28 13:35 N 12 10.00 Partly Cloudy SCT110 66.2 59 78% 30.03 0.0
28 13:15 N 13 10.00 A Few Clouds FEW110 64.4 59 83% 30.03 0.0
Date Time (pdt) Wind (mph) Vis. (mi.) Weather Sky Cond. Air Dwpt Max. Min. Relative Humidity Wind Chill (°F) Heat Index (°F) altimeter (in) sea level (mb) 1 hr 3 hr 6 hr
6 hour
Temperature (ºF) Pressure Precipitation (in)